Time;durP1;ratioP1;P1;durP2;ratioP2;P2;SDS_P1;SDS_P2;PMS_P1;PMS_P2;Temp;Humidity;BMP_temperature;BMP_pressure;BME280_temperature;BME280_humidity;BME280_pressure;Samples;Min_cycle;Max_cycle;Signal;HPM_P1;HPM_P2
2022/01/22 16:36:14;;;;;;;;;;;5.60;99.90;;;;;;5151905;27;19912;-71
2022/01/22 16:38:40;;;;;;;;;;;;;;;;;;5132856;27;20010;-71
2022/01/22 16:41:07;;;;;;;;;;;5.60;99.90;;;;;;5152187;27;19907;-74
2022/01/22 16:43:34;;;;;;;;;;;;;;;;;;5125772;27;20315;-84
2022/01/22 16:51:42;;;;;;;;;;;5.30;99.90;;;;;;5141042;27;19950;-71
2022/01/22 16:54:38;;;;;;;;;;;5.30;99.90;;;;;;5122787;27;19911;-75
2022/01/22 16:57:09;;;;;;;;;;;5.20;99.90;;;;;;5140462;27;19943;-74
2022/01/22 16:59:36;;;;;;;;;;;5.20;99.90;;;;;;5122084;27;20254;-75
2022/01/22 17:02:04;;;;;;;;;;;;;;;;;;5140905;27;19908;-72
2022/01/22 17:04:36;;;;;;;;;;;5.30;99.90;;;;;;5139229;27;19908;-78
2022/01/22 17:07:06;;;;;;;;;;;5.10;99.90;;;;;;5139007;27;19912;-73
2022/01/22 17:14:46;;;;;;;;;;;5.20;99.90;;;;;;5138056;27;20435;-75
2022/01/22 17:17:11;;;;;;;;;;;;;;;;;;5138751;27;20324;-76
2022/01/22 17:19:38;;;;;;;;;;;5.20;99.90;;;;;;5122514;27;20001;-75
2022/01/22 17:22:04;;;;;;;;;;;;;;;;;;5151350;27;19904;-75
2022/01/22 17:24:30;;;;;;;;;;;5.20;99.90;;;;;;5151211;27;19910;-74
2022/01/22 17:26:56;;;;;;;;;;;5.30;99.90;;;;;;5150361;27;20364;-73
2022/01/22 17:29:21;;;;;;;;;;;5.20;99.90;;;;;;5151228;27;19986;-73
2022/01/22 17:31:47;;;;;;;;;;;5.20;99.90;;;;;;5150545;27;19914;-74
2022/01/22 17:34:13;;;;;;;;;;;5.20;99.90;;;;;;5148799;27;19922;-74
2022/01/22 17:36:38;;;;;;;;;;;5.20;99.90;;;;;;5129716;28;19915;-74
2022/01/22 17:39:23;;;;;;;;;;;5.20;99.90;;;;;;5130280;28;19911;-74
2022/01/22 17:41:51;;;;;;;;;;;5.20;99.90;;;;;;5129739;28;19910;-74
2022/01/22 17:44:32;;;;;;;;;;;5.20;99.90;;;;;;5111523;28;19903;-74
2022/01/22 17:46:58;;;;;;;;;;;5.20;99.90;;;;;;5117716;28;19915;-73
2022/01/22 17:49:24;;;;;;;;;;;5.20;99.90;;;;;;5135864;27;19927;-73
2022/01/22 17:51:49;;;;;;;;;;;5.20;99.90;;;;;;5134009;27;19956;-74
2022/01/22 17:54:15;;;;;;;;;;;5.20;99.90;;;;;;5118940;27;19907;-73
2022/01/22 17:56:40;;;;;;;;;;;5.20;99.90;;;;;;5115990;28;20341;-73
2022/01/22 17:59:06;;;;;;;;;;;5.30;99.90;;;;;;5116228;28;19903;-73
2022/01/22 18:01:32;;;;;;;;;;;5.30;99.90;;;;;;5132359;27;19914;-73
2022/01/22 18:04:01;;;;;;;;;;;5.20;99.90;;;;;;5126253;27;20312;-73
2022/01/22 18:06:30;;;;;;;;;;;5.30;99.90;;;;;;5115810;28;20352;-73
2022/01/22 18:08:56;;;;;;;;;;;5.30;99.90;;;;;;5115210;28;19935;-73
2022/01/22 18:11:22;;;;;;;;;;;5.30;99.90;;;;;;5097753;28;19962;-73
2022/01/22 18:13:49;;;;;;;;;;;5.20;99.90;;;;;;5108394;27;19965;-71
2022/01/22 18:16:14;;;;;;;;;;;5.30;99.90;;;;;;5127722;27;20343;-71
2022/01/22 18:18:40;;;;;;;;;;;5.30;99.90;;;;;;5132569;27;19915;-71
2022/01/22 18:21:06;;;;;;;;;;;5.30;99.90;;;;;;5121755;27;19908;-73
2022/01/22 18:23:31;;;;;;;;;;;5.30;99.90;;;;;;5131461;27;19967;-75
2022/01/22 18:25:57;;;;;;;;;;;;;;;;;;5135252;27;20386;-72
2022/01/22 18:28:23;;;;;;;;;;;5.30;99.90;;;;;;5117518;27;19967;-73
2022/01/22 18:30:49;;;;;;;;;;;5.30;99.90;;;;;;5135064;27;19915;-73
2022/01/22 18:33:16;;;;;;;;;;;5.20;99.90;;;;;;5135811;27;19998;-73
2022/01/22 18:35:42;;;;;;;;;;;;;;;;;;5134803;27;20023;-79
2022/01/22 18:38:07;;;;;;;;;;;5.30;99.90;;;;;;5135652;27;19947;-73
2022/01/22 18:40:34;;;;;;;;;;;5.20;99.90;;;;;;5135969;27;19908;-73
2022/01/22 18:43:00;;;;;;;;;;;5.20;99.90;;;;;;5134768;27;20557;-73
2022/01/22 18:45:30;;;;;;;;;;;5.20;99.90;;;;;;5135515;27;19952;-73
2022/01/22 18:47:56;;;;;;;;;;;5.20;99.90;;;;;;5134573;27;19907;-73
2022/01/22 18:50:21;;;;;;;;;;;5.20;99.90;;;;;;5135424;27;19907;-73
2022/01/22 18:52:47;;;;;;;;;;;5.20;99.90;;;;;;5116074;27;19934;-73
2022/01/22 18:55:14;;;;;;;;;;;5.20;99.90;;;;;;5135278;27;20362;-73
2022/01/22 18:57:40;;;;;;;;;;;;;;;;;;5133969;27;19914;-79
2022/01/22 19:00:06;;;;;;;;;;;;;;;;;;5134797;27;19908;-73
2022/01/22 19:02:31;;;;;;;;;;;5.10;99.90;;;;;;5116380;27;19911;-73
2022/01/22 19:04:57;;;;;;;;;;;5.10;99.90;;;;;;5134385;27;19922;-73
2022/01/22 19:07:22;;;;;;;;;;;5.10;99.90;;;;;;5134711;27;20460;-73
2022/01/22 19:09:49;;;;;;;;;;;5.20;99.90;;;;;;5115792;27;19907;-73
2022/01/22 19:12:17;;;;;;;;;;;5.10;99.90;;;;;;5134783;27;19914;-73
2022/01/22 19:14:43;;;;;;;;;;;5.20;99.90;;;;;;5130930;27;19919;-73
2022/01/22 19:17:08;;;;;;;;;;;5.10;99.90;;;;;;5135915;27;20010;-70
2022/01/22 19:19:34;;;;;;;;;;;;;;;;;;5134933;27;20013;-69
2022/01/22 19:22:41;;;;;;;;;;;5.10;99.90;;;;;;5134622;27;20558;-67
2022/01/22 19:25:02;;;;;;;;;;;5.10;99.90;;;;;;5129659;27;20002;-68
2022/01/22 19:30:12;;;;;;;;;;;5.10;99.90;;;;;;5136339;27;19960;-71
2022/01/22 19:32:37;;;;;;;;;;;5.10;99.90;;;;;;5135029;27;20006;-75
2022/01/22 19:35:05;;;;;;;;;;;;;;;;;;5135414;27;19923;-71
2022/01/22 19:37:30;;;;;;;;;;;5.10;99.90;;;;;;5135617;27;19918;-68
2022/01/22 19:39:56;;;;;;;;;;;5.20;99.90;;;;;;5134828;27;19907;-69
2022/01/22 19:42:26;;;;;;;;;;;5.20;99.90;;;;;;5135257;27;19914;-67
2022/01/22 19:44:59;;;;;;;;;;;5.10;99.90;;;;;;5134798;27;19915;-68
2022/01/22 19:47:24;;;;;;;;;;;5.10;99.90;;;;;;5134389;27;19907;-67
2022/01/22 19:49:50;;;;;;;;;;;5.10;99.90;;;;;;5135386;27;19907;-69
2022/01/22 19:52:16;;;;;;;;;;;;;;;;;;5135030;27;20377;-71
2022/01/22 19:54:41;;;;;;;;;;;5.10;99.90;;;;;;5130390;27;19969;-72
2022/01/22 19:57:07;;;;;;;;;;;5.10;99.90;;;;;;5106262;27;19912;-71
2022/01/22 19:59:36;;;;;;;;;;;5.10;99.90;;;;;;5122771;27;19995;-71
2022/01/22 20:02:05;;;;;;;;;;;5.10;99.90;;;;;;5126701;27;19908;-73
2022/01/22 20:04:31;;;;;;;;;;;5.10;99.90;;;;;;5116228;27;20232;-75
2022/01/22 20:06:57;;;;;;;;;;;5.10;99.90;;;;;;5113282;28;19914;-76
2022/01/22 20:09:22;;;;;;;;;;;5.10;99.90;;;;;;5113672;28;20309;-74
2022/01/22 20:11:48;;;;;;;;;;;5.20;99.90;;;;;;5113246;28;19998;-75
2022/01/22 20:14:16;;;;;;;;;;;5.10;99.90;;;;;;5113329;28;19908;-75
2022/01/22 20:16:42;;;;;;;;;;;5.10;99.90;;;;;;5102194;27;19907;-74
2022/01/22 20:19:07;;;;;;;;;;;;;;;;;;5133848;27;20320;-74
2022/01/22 20:21:35;;;;;;;;;;;5.10;99.90;;;;;;5135022;27;19907;-72
2022/01/22 20:24:01;;;;;;;;;;;5.10;99.90;;;;;;5116434;27;20250;-74
2022/01/22 20:26:26;;;;;;;;;;;5.20;99.90;;;;;;5134094;27;19904;-74
2022/01/22 20:28:52;;;;;;;;;;;5.10;99.90;;;;;;5133493;27;20001;-73
2022/01/22 20:31:18;;;;;;;;;;;5.20;99.90;;;;;;5134495;27;19907;-74
2022/01/22 20:33:45;;;;;;;;;;;5.20;99.90;;;;;;5134427;28;19904;-76
2022/01/22 20:36:13;;;;;;;;;;;;;;;;;;5133873;28;19916;-76
2022/01/22 20:38:40;;;;;;;;;;;5.20;99.90;;;;;;5115657;28;19915;-74
2022/01/22 20:41:07;;;;;;;;;;;5.10;99.90;;;;;;5133547;28;19911;-74
2022/01/22 20:43:36;;;;;;;;;;;5.20;99.90;;;;;;5115679;28;20267;-75
2022/01/22 20:46:01;;;;;;;;;;;5.10;99.90;;;;;;5132623;28;19992;-73
2022/01/22 20:48:27;;;;;;;;;;;5.10;99.90;;;;;;5133335;28;19907;-75
2022/01/22 20:50:52;;;;;;;;;;;5.10;99.90;;;;;;5133425;28;19911;-75
2022/01/22 20:53:18;;;;;;;;;;;5.10;99.90;;;;;;5133490;28;19908;-74
2022/01/22 20:55:44;;;;;;;;;;;5.10;99.90;;;;;;5115683;28;20018;-76
2022/01/22 20:58:18;;;;;;;;;;;5.10;99.90;;;;;;5132891;28;19911;-74
2022/01/22 21:00:43;;;;;;;;;;;5.00;99.90;;;;;;5133974;28;19990;-74
2022/01/22 21:03:09;;;;;;;;;;;5.00;99.90;;;;;;5133373;28;19958;-74
2022/01/22 21:05:35;;;;;;;;;;;;;;;;;;5133634;28;19966;-73
2022/01/22 21:08:02;;;;;;;;;;;5.00;99.90;;;;;;5133296;28;19968;-74
2022/01/22 21:10:28;;;;;;;;;;;5.00;99.90;;;;;;5134119;28;19947;-74
2022/01/22 21:12:53;;;;;;;;;;;5.00;99.90;;;;;;5133204;28;19914;-74
2022/01/22 21:15:19;;;;;;;;;;;5.10;99.90;;;;;;5133061;28;20287;-75
2022/01/22 21:17:45;;;;;;;;;;;5.00;99.90;;;;;;5132918;28;19915;-73
2022/01/22 21:20:11;;;;;;;;;;;5.00;99.90;;;;;;5132900;27;19907;-74
2022/01/22 21:22:37;;;;;;;;;;;5.00;99.90;;;;;;5119010;27;19908;-74
2022/01/22 21:25:07;;;;;;;;;;;5.00;99.90;;;;;;5118739;27;20280;-75
2022/01/22 21:27:33;;;;;;;;;;;5.00;99.90;;;;;;5118850;27;19958;-73
2022/01/22 21:30:00;;;;;;;;;;;5.00;99.90;;;;;;5136855;27;19968;-74
2022/01/22 21:32:26;;;;;;;;;;;5.00;99.90;;;;;;5137333;27;19914;-74
2022/01/22 21:34:54;;;;;;;;;;;5.00;99.90;;;;;;5135850;27;19919;-75
2022/01/22 21:39:54;;;;;;;;;;;4.90;99.90;;;;;;5136681;27;19904;-74
2022/01/22 21:42:21;;;;;;;;;;;4.90;99.90;;;;;;5137362;27;20006;-74
2022/01/22 21:44:48;;;;;;;;;;;4.90;99.90;;;;;;5136847;27;19914;-75
2022/01/22 21:47:14;;;;;;;;;;;4.90;99.90;;;;;;5136723;27;19904;-75
2022/01/22 21:49:40;;;;;;;;;;;5.00;99.90;;;;;;5136911;27;20411;-75
2022/01/22 21:52:05;;;;;;;;;;;5.00;99.90;;;;;;5136361;27;20379;-74
2022/01/22 21:54:31;;;;;;;;;;;5.00;99.90;;;;;;5118038;27;19967;-73
2022/01/22 21:56:56;;;;;;;;;;;5.00;99.90;;;;;;5135663;27;19908;-75
2022/01/22 21:59:22;;;;;;;;;;;4.90;99.90;;;;;;5136877;27;19907;-74
2022/01/22 22:01:48;;;;;;;;;;;4.90;99.90;;;;;;5136592;27;19916;-76
2022/01/22 22:04:13;;;;;;;;;;;4.90;99.90;;;;;;5135576;27;20294;-74
2022/01/22 22:06:39;;;;;;;;;;;;;;;;;;5136644;27;19916;-74
2022/01/22 22:09:05;;;;;;;;;;;4.90;99.90;;;;;;5136120;27;20267;-75
2022/01/22 22:11:31;;;;;;;;;;;4.80;99.90;;;;;;5136393;27;19908;-75
2022/01/22 22:13:56;;;;;;;;;;;4.90;99.90;;;;;;5135514;27;19914;-76
2022/01/22 22:16:22;;;;;;;;;;;4.90;99.90;;;;;;5136154;27;19908;-76
2022/01/22 22:18:47;;;;;;;;;;;4.90;99.90;;;;;;5117774;27;19911;-74
2022/01/22 22:21:14;;;;;;;;;;;4.90;99.90;;;;;;5135964;27;20025;-75
2022/01/22 22:23:40;;;;;;;;;;;4.90;99.90;;;;;;5117977;27;19912;-75
2022/01/22 22:26:06;;;;;;;;;;;4.90;99.90;;;;;;5136738;27;19912;-73
2022/01/22 22:28:31;;;;;;;;;;;4.80;99.90;;;;;;5136064;27;19914;-73
2022/01/22 22:31:06;;;;;;;;;;;4.90;99.90;;;;;;5135755;27;19915;-74
2022/01/22 22:33:32;;;;;;;;;;;;;;;;;;5135290;27;19907;-74
2022/01/22 22:35:58;;;;;;;;;;;4.80;99.90;;;;;;5134606;27;20018;-73
2022/01/22 22:38:24;;;;;;;;;;;;;;;;;;5135667;27;19908;-74
2022/01/22 22:40:53;;;;;;;;;;;4.90;99.90;;;;;;5135810;27;20357;-74
2022/01/22 22:43:19;;;;;;;;;;;5.00;99.90;;;;;;5135781;27;19911;-74
2022/01/22 22:45:45;;;;;;;;;;;4.90;99.90;;;;;;5135755;27;19983;-74
2022/01/22 22:48:10;;;;;;;;;;;5.00;99.90;;;;;;5135036;27;20372;-74
2022/01/22 22:50:36;;;;;;;;;;;5.00;99.90;;;;;;5136118;27;19947;-74
2022/01/22 22:53:01;;;;;;;;;;;4.90;99.90;;;;;;5135046;27;19913;-74
2022/01/22 22:55:27;;;;;;;;;;;;;;;;;;5135145;27;19960;-75
2022/01/22 22:57:53;;;;;;;;;;;4.90;99.90;;;;;;5134682;27;19914;-75
2022/01/22 23:01:04;;;;;;;;;;;4.90;99.90;;;;;;5135447;27;19907;-74
2022/01/22 23:03:19;;;;;;;;;;;4.90;99.90;;;;;;5125951;27;19908;-74
2022/01/22 23:05:45;;;;;;;;;;;;;;;;;;5116038;27;19926;-74
2022/01/22 23:08:12;;;;;;;;;;;4.90;99.90;;;;;;5134650;27;19911;-74
2022/01/22 23:10:41;;;;;;;;;;;4.90;99.90;;;;;;5134964;27;19911;-74
2022/01/22 23:13:07;;;;;;;;;;;;;;;;;;5116230;27;19914;-74
2022/01/22 23:15:35;;;;;;;;;;;5.00;99.90;;;;;;5134707;27;19915;-74
2022/01/22 23:25:50;;;;;;;;;;;5.00;99.90;;;;;;5134903;27;20343;-74
2022/01/22 23:28:19;;;;;;;;;;;5.00;99.90;;;;;;5134112;27;19908;-74
2022/01/22 23:30:47;;;;;;;;;;;5.00;99.90;;;;;;5134947;27;19915;-74
2022/01/22 23:33:22;;;;;;;;;;;;;;;;;;5134346;27;20120;-74
2022/01/22 23:54:47;;;;;;;;;;;5.20;99.90;;;;;;5030911;28;19917;-74
2022/01/22 23:57:24;;;;;;;;;;;5.00;99.90;;;;;;5086495;27;19915;-74
